createdAt,value
2018-02-20T00:00:29.149Z,70.53
2018-02-20T00:02:59.103Z,70.24
2018-02-20T00:05:29.027Z,70.34
2018-02-20T00:07:59.089Z,70.64
2018-02-20T00:10:28.901Z,70.16
2018-02-20T00:12:58.525Z,69.96
2018-02-20T00:15:28.311Z,69.67
2018-02-20T00:17:58.352Z,69.72
2018-02-20T00:20:28.884Z,69.54
2018-02-20T00:23:04.743Z,69.85
2018-02-20T00:25:34.644Z,69.89
2018-02-20T00:28:05.541Z,69.50
2018-02-20T00:30:35.801Z,69.38
2018-02-20T00:33:06.675Z,69.15
2018-02-20T00:35:36.602Z,69.16
2018-02-20T00:38:06.274Z,69.18
2018-02-20T00:40:36.576Z,69.03
2018-02-20T00:43:06.687Z,69.16
2018-02-20T00:45:37.056Z,69.36
2018-02-20T00:48:06.665Z,69.23
2018-02-20T00:50:36.802Z,69.26
2018-02-20T00:53:07.947Z,69.58
2018-02-20T00:55:38.093Z,69.51
2018-02-20T00:58:08.270Z,69.41
2018-02-20T01:00:37.930Z,69.25
2018-02-20T01:03:07.888Z,69.24
2018-02-20T01:05:38.134Z,69.12
2018-02-20T01:08:08.261Z,69.43
2018-02-20T01:10:38.172Z,69.32
2018-02-20T01:13:08.507Z,69.06
2018-02-20T01:15:39.264Z,68.94
2018-02-20T01:18:11.638Z,69.06
2018-02-20T01:20:42.152Z,69.17
2018-02-20T01:23:12.282Z,68.92
2018-02-20T01:25:42.061Z,68.69
2018-02-20T01:28:12.115Z,68.76
2018-02-20T01:30:42.022Z,68.75
2018-02-20T01:33:11.983Z,68.82
2018-02-20T01:35:41.597Z,68.98
2018-02-20T01:38:11.453Z,68.95
2018-02-20T01:40:40.909Z,68.95
2018-02-20T01:43:10.574Z,68.80
2018-02-20T01:45:40.890Z,69.03
2018-02-20T01:48:11.573Z,68.85
2018-02-20T01:50:49.327Z,68.97
2018-02-20T01:53:19.441Z,69.19
2018-02-20T01:55:49.092Z,69.01
2018-02-20T01:58:19.175Z,68.58
2018-02-20T02:00:49.191Z,68.41
2018-02-20T02:03:19.285Z,69.26
2018-02-20T02:05:48.998Z,69.32
2018-02-20T02:08:18.711Z,69.08
2018-02-20T02:10:48.975Z,69.27
2018-02-20T02:13:18.949Z,69.04
2018-02-20T02:15:49.089Z,68.67
2018-02-20T02:18:19.283Z,68.89
2018-02-20T02:20:49.746Z,68.89
2018-02-20T02:23:19.920Z,69.12
2018-02-20T02:25:49.911Z,69.18
2018-02-20T02:28:19.655Z,69.37
2018-02-20T02:30:49.914Z,69.69
2018-02-20T02:33:19.863Z,69.49
2018-02-20T02:35:49.610Z,69.18
2018-02-20T02:38:21.007Z,69.31
2018-02-20T02:40:50.886Z,69.73
2018-02-20T02:43:20.556Z,70.19
2018-02-20T02:45:51.440Z,70.03
2018-02-20T02:48:21.407Z,70.26
2018-02-20T02:50:51.374Z,70.20
2018-02-20T02:53:23.141Z,70.14
2018-02-20T02:55:53.034Z,70.49
2018-02-20T02:58:23.120Z,70.57
2018-02-20T03:00:52.903Z,70.66
2018-02-20T03:03:24.225Z,71.15
2018-02-20T03:05:57.266Z,71.12
2018-02-20T03:08:28.409Z,70.89
2018-02-20T03:11:00.066Z,70.86
2018-02-20T03:13:30.458Z,70.89
2018-02-20T03:16:00.298Z,71.47
2018-02-20T03:18:30.227Z,71.55
2018-02-20T03:21:00.394Z,71.58
2018-02-20T03:23:29.986Z,72.00
2018-02-20T03:25:59.974Z,72.13
2018-02-20T03:28:30.244Z,71.99
2018-02-20T03:31:00.162Z,71.92
2018-02-20T03:33:29.881Z,72.13
2018-02-20T03:36:00.195Z,72.07
2018-02-20T03:38:29.764Z,72.66
2018-02-20T03:41:00.356Z,72.77
2018-02-20T03:43:30.558Z,72.56
2018-02-20T03:46:00.870Z,72.21
2018-02-20T03:48:30.457Z,72.04
2018-02-20T03:51:00.327Z,71.94
2018-02-20T03:53:30.001Z,71.89
2018-02-20T03:55:59.858Z,71.81
2018-02-20T03:58:30.020Z,71.97
2018-02-20T04:01:00.460Z,71.87
2018-02-20T04:03:30.198Z,72.22
2018-02-20T04:06:00.339Z,72.09
2018-02-20T04:08:30.080Z,71.76
2018-02-20T04:10:59.975Z,71.73
2018-02-20T04:13:30.385Z,71.70
2018-02-20T04:15:59.995Z,71.85
2018-02-20T04:18:29.549Z,71.93
2018-02-20T04:20:59.492Z,72.14
2018-02-20T04:23:29.436Z,72.36
2018-02-20T04:26:00.380Z,72.25
2018-02-20T04:28:30.180Z,72.21
2018-02-20T04:31:00.567Z,72.66
2018-02-20T04:33:30.665Z,72.71
2018-02-20T04:36:00.753Z,72.66
2018-02-20T04:38:30.444Z,72.66
2018-02-20T04:41:00.181Z,72.53
2018-02-20T04:43:30.201Z,72.44
2018-02-20T04:46:00.095Z,72.32
2018-02-20T04:48:30.366Z,72.42
2018-02-20T04:51:01.297Z,72.36
2018-02-20T04:53:31.242Z,72.74
2018-02-20T04:56:01.021Z,72.77
2018-02-20T04:58:31.112Z,72.90
2018-02-20T05:01:01.126Z,72.79
2018-02-20T05:03:30.671Z,73.26
2018-02-20T05:06:01.137Z,73.26
2018-02-20T05:08:30.574Z,73.02
2018-02-20T05:11:00.302Z,73.08
2018-02-20T05:13:30.516Z,73.00
2018-02-20T05:15:59.945Z,72.94
2018-02-20T05:18:30.047Z,72.73
2018-02-20T05:21:00.385Z,73.38
2018-02-20T05:23:30.382Z,73.02
2018-02-20T05:25:59.875Z,73.22
2018-02-20T05:28:30.001Z,73.03
2018-02-20T05:30:59.801Z,72.89
2018-02-20T05:33:29.450Z,72.76
2018-02-20T05:35:59.920Z,72.57
2018-02-20T05:38:29.814Z,72.61
2018-02-20T05:40:59.817Z,72.69
2018-02-20T05:43:30.306Z,72.56
2018-02-20T05:46:00.083Z,72.53
2018-02-20T05:48:29.851Z,72.63
2018-02-20T05:51:00.523Z,72.70
2018-02-20T05:53:30.394Z,72.87
2018-02-20T05:56:00.109Z,72.69
2018-02-20T05:58:29.931Z,72.64
2018-02-20T06:00:59.570Z,72.42
2018-02-20T06:03:29.069Z,72.27
2018-02-20T06:06:03.049Z,72.25
2018-02-20T06:08:32.984Z,72.08
2018-02-20T06:11:03.153Z,71.84
2018-02-20T06:13:33.618Z,71.68
2018-02-20T06:16:03.624Z,71.36
2018-02-20T06:18:34.845Z,71.34
2018-02-20T06:21:04.959Z,71.05
2018-02-20T06:23:35.623Z,70.72
2018-02-20T06:26:05.325Z,70.48
2018-02-20T06:28:35.741Z,70.24
2018-02-20T06:31:06.202Z,69.92
2018-02-20T06:33:36.017Z,69.71
2018-02-20T06:36:08.152Z,69.41
2018-02-20T06:38:38.066Z,69.01
2018-02-20T06:41:07.567Z,68.76
2018-02-20T06:43:37.647Z,68.51
2018-02-20T06:46:08.516Z,68.20
2018-02-20T06:48:38.549Z,67.93
2018-02-20T06:51:08.497Z,67.51
2018-02-20T06:53:38.149Z,67.26
2018-02-20T06:56:07.795Z,67.19
2018-02-20T06:58:38.098Z,67.12
2018-02-20T07:01:08.066Z,67.13
2018-02-20T07:03:37.763Z,66.98
2018-02-20T07:06:08.146Z,66.71
2018-02-20T07:08:37.605Z,66.51
2018-02-20T07:11:07.159Z,66.25
2018-02-20T07:13:37.317Z,65.97
2018-02-20T07:16:06.723Z,65.76
2018-02-20T07:18:36.433Z,65.43
2018-02-20T07:21:06.784Z,65.18
2018-02-20T07:23:36.310Z,64.89
2018-02-20T07:26:07.493Z,64.88
2018-02-20T07:28:37.268Z,64.60
2018-02-20T07:31:07.087Z,64.15
2018-02-20T07:33:37.409Z,63.70
2018-02-20T07:36:07.638Z,63.56
2018-02-20T07:38:37.350Z,63.15
2018-02-20T07:41:07.406Z,62.60
2018-02-20T07:43:37.447Z,62.46
2018-02-20T07:46:07.194Z,62.47
2018-02-20T07:48:37.071Z,62.82
2018-02-20T07:51:09.035Z,63.45
2018-02-20T07:53:40.265Z,63.29
2018-02-20T07:56:09.987Z,63.94
2018-02-20T07:58:39.733Z,63.63
2018-02-20T08:01:09.156Z,63.40
2018-02-20T08:03:39.145Z,62.99
2018-02-20T08:06:08.735Z,62.93
2018-02-20T08:08:38.162Z,62.89
2018-02-20T08:11:09.035Z,63.13
2018-02-20T08:13:39.452Z,64.00
2018-02-20T08:16:09.620Z,64.41
2018-02-20T08:18:39.444Z,63.90
2018-02-20T08:21:09.154Z,63.85
2018-02-20T08:23:40.135Z,64.47
2018-02-20T08:26:11.682Z,64.27
2018-02-20T08:28:41.126Z,64.81
2018-02-20T08:31:11.013Z,65.26
2018-02-20T08:33:41.369Z,65.17
2018-02-20T08:36:11.364Z,64.93
2018-02-20T08:38:41.493Z,64.23
2018-02-20T08:41:13.088Z,63.59
2018-02-20T08:43:42.492Z,63.26
2018-02-20T08:46:11.994Z,63.13
2018-02-20T08:48:41.901Z,62.89
2018-02-20T08:51:11.621Z,62.52
2018-02-20T08:53:41.033Z,62.89
2018-02-20T08:56:11.188Z,63.37
2018-02-20T08:58:41.056Z,63.08
2018-02-20T09:01:11.733Z,62.34
2018-02-20T09:03:41.436Z,61.83
2018-02-20T09:06:11.067Z,62.95
2018-02-20T09:08:41.050Z,63.09
2018-02-20T09:11:10.773Z,62.57
2018-02-20T09:13:40.402Z,61.98
2018-02-20T09:16:10.177Z,61.93
2018-02-20T09:18:39.584Z,61.45
2018-02-20T09:21:08.996Z,61.51
2018-02-20T09:23:39.817Z,61.66
2018-02-20T09:26:09.645Z,61.00
2018-02-20T09:28:39.395Z,60.16
2018-02-20T09:31:09.065Z,60.30
2018-02-20T09:33:38.497Z,59.66
2018-02-20T09:36:08.597Z,59.06
2018-02-20T09:38:38.058Z,58.57
2018-02-20T09:41:07.658Z,57.66
2018-02-20T09:43:37.210Z,57.41
2018-02-20T09:46:06.980Z,57.35
2018-02-20T09:48:36.666Z,57.64
2018-02-20T09:51:06.280Z,58.84
2018-02-20T09:53:35.765Z,60.71
2018-02-20T09:56:05.672Z,62.16
2018-02-20T09:58:35.368Z,61.97
2018-02-20T10:01:05.584Z,61.68
2018-02-20T10:03:35.101Z,61.20
2018-02-20T10:06:04.729Z,60.19
2018-02-20T10:08:34.406Z,59.13
2018-02-20T10:11:04.386Z,58.21
2018-02-20T10:13:34.071Z,57.48
2018-02-20T10:16:04.275Z,56.28
2018-02-20T10:18:33.911Z,55.34
2018-02-20T10:21:03.723Z,54.88
2018-02-20T10:23:33.521Z,54.85
2018-02-20T10:26:03.676Z,54.79
2018-02-20T10:28:33.288Z,53.70
2018-02-20T10:31:03.348Z,53.06
2018-02-20T10:33:34.034Z,53.82
2018-02-20T10:36:04.166Z,54.28
2018-02-20T10:38:34.054Z,54.46
2018-02-20T10:41:03.987Z,55.36
2018-02-20T10:43:33.615Z,56.50
2018-02-20T10:46:04.014Z,57.11
2018-02-20T10:48:33.600Z,56.95
2018-02-20T10:51:04.253Z,56.66
2018-02-20T10:53:33.707Z,55.08
2018-02-20T10:56:03.591Z,55.01
2018-02-20T10:58:33.057Z,54.02
2018-02-20T11:01:02.502Z,53.43
2018-02-20T11:03:32.200Z,54.53
2018-02-20T11:06:01.996Z,55.48
2018-02-20T11:08:32.111Z,55.72
2018-02-20T11:11:02.902Z,55.35
2018-02-20T11:13:32.957Z,54.90
2018-02-20T11:16:02.829Z,54.68
2018-02-20T11:18:32.638Z,53.75
2018-02-20T11:21:02.484Z,53.76
2018-02-20T11:23:32.083Z,54.20
2018-02-20T11:26:01.820Z,54.21
2018-02-20T11:28:31.811Z,54.08
2018-02-20T11:31:01.619Z,55.22
2018-02-20T11:33:31.412Z,54.88
2018-02-20T11:36:01.331Z,55.17
2018-02-20T11:38:31.173Z,55.84
2018-02-20T11:41:01.216Z,56.28
2018-02-20T11:43:30.671Z,56.18
2018-02-20T11:46:00.206Z,56.27
2018-02-20T11:48:29.656Z,56.03
2018-02-20T11:50:59.293Z,55.99
2018-02-20T11:53:28.805Z,55.97
2018-02-20T11:55:58.768Z,55.76
2018-02-20T11:58:28.966Z,56.36
2018-02-20T12:01:00.256Z,56.52
2018-02-20T12:03:30.928Z,56.66
2018-02-20T12:06:01.063Z,56.62
2018-02-20T12:08:30.614Z,57.20
2018-02-20T12:11:00.932Z,57.25
2018-02-20T12:13:30.440Z,58.05
2018-02-20T12:16:00.987Z,57.44
2018-02-20T12:58:44.336Z,58.46
2018-02-20T13:01:25.500Z,59.33
2018-02-20T13:04:05.610Z,59.59
2018-02-20T13:06:35.570Z,59.61
2018-02-20T13:09:05.358Z,60.56
2018-02-20T13:11:35.148Z,60.72
2018-02-20T13:14:05.139Z,61.04
2018-02-20T13:16:34.707Z,60.96
2018-02-20T13:19:04.229Z,60.91
2018-02-20T13:21:34.123Z,61.33
2018-02-20T13:24:03.998Z,61.74
2018-02-20T13:26:33.542Z,61.76
2018-02-20T13:29:03.565Z,61.64
2018-02-20T13:31:33.312Z,61.95
2018-02-20T13:34:02.905Z,61.20
2018-02-20T13:36:33.324Z,60.84
2018-02-20T13:39:03.986Z,61.22
2018-02-20T13:41:33.742Z,61.62
2018-02-20T13:44:03.384Z,61.69
2018-02-20T13:46:34.805Z,62.10
2018-02-20T13:49:05.046Z,61.71
2018-02-20T13:51:35.384Z,61.17
2018-02-20T13:54:05.436Z,61.04
2018-02-20T13:56:35.045Z,60.95
2018-02-20T13:59:05.181Z,60.93
2018-02-20T14:01:35.326Z,61.48
2018-02-20T14:04:05.756Z,61.23
2018-02-20T14:06:35.602Z,60.77
2018-02-20T14:09:05.714Z,60.93
2018-02-20T14:11:35.500Z,60.30
2018-02-20T14:14:05.500Z,59.61
2018-02-20T14:16:35.162Z,59.30
2018-02-20T14:19:05.060Z,59.61
2018-02-20T14:21:34.920Z,59.76
2018-02-20T14:24:04.427Z,60.14
2018-02-20T14:26:34.246Z,60.48
2018-02-20T14:29:03.923Z,60.66
2018-02-20T14:31:33.744Z,60.28
2018-02-20T14:34:04.089Z,59.91
2018-02-20T14:36:33.642Z,60.03
2018-02-20T14:39:03.905Z,60.60
2018-02-20T14:41:34.262Z,60.78
2018-02-20T14:44:03.754Z,60.76
2018-02-20T14:46:33.294Z,60.88
2018-02-20T14:49:03.440Z,61.03
2018-02-20T14:51:32.967Z,60.95
2018-02-20T14:54:02.783Z,60.82
2018-02-20T14:56:32.521Z,60.75
2018-02-20T14:59:02.389Z,60.48
2018-02-20T15:01:32.026Z,60.54
2018-02-20T15:04:02.315Z,60.91
2018-02-20T15:06:32.033Z,60.34
2018-02-20T15:09:02.680Z,59.71
2018-02-20T15:11:32.559Z,59.28
2018-02-20T15:14:02.126Z,58.75
2018-02-20T15:16:32.069Z,58.60
2018-02-20T15:19:02.020Z,58.68
2018-02-20T15:21:31.503Z,58.38
2018-02-20T15:24:01.148Z,58.17
2018-02-20T15:26:30.976Z,57.81
2018-02-20T15:29:00.455Z,57.75
2018-02-20T15:31:30.061Z,58.02
2018-02-20T15:33:59.816Z,58.04
2018-02-20T15:36:29.344Z,57.95
2018-02-20T15:38:58.782Z,58.38
2018-02-20T15:41:28.646Z,58.39
2018-02-20T15:43:58.056Z,58.21
2018-02-20T15:46:27.587Z,58.82
2018-02-20T15:48:57.478Z,59.39
2018-02-20T15:51:27.449Z,59.37
2018-02-20T15:53:56.937Z,59.34
2018-02-20T15:56:26.913Z,59.24
2018-02-20T15:58:56.370Z,59.76
2018-02-20T16:01:26.442Z,59.82
2018-02-20T16:03:56.402Z,60.66
2018-02-20T16:06:25.991Z,60.52
2018-02-20T16:08:55.637Z,60.70
2018-02-20T16:11:26.391Z,60.89
2018-02-20T16:13:55.990Z,60.64
2018-02-20T16:16:27.009Z,61.21
2018-02-20T16:18:57.357Z,61.29
2018-02-20T16:21:27.804Z,61.24
2018-02-20T16:23:57.341Z,61.33
2018-02-20T16:26:27.673Z,61.49
2018-02-20T16:28:58.001Z,61.56
2018-02-20T16:31:28.609Z,62.05
2018-02-20T16:33:59.505Z,62.32
2018-02-20T16:36:28.991Z,62.12
2018-02-20T16:38:59.555Z,62.40
2018-02-20T16:41:30.110Z,61.88
2018-02-20T16:43:59.648Z,62.11
2018-02-20T16:46:29.952Z,62.03
2018-02-20T16:48:59.436Z,62.45
2018-02-20T16:51:28.873Z,62.31
2018-02-20T16:53:58.773Z,62.00
2018-02-20T16:56:28.330Z,62.06
2018-02-20T16:58:58.394Z,62.03
2018-02-20T17:01:27.999Z,62.08
2018-02-20T17:03:57.485Z,62.10
2018-02-20T17:06:27.542Z,62.51
2018-02-20T17:08:57.546Z,62.50
2018-02-20T17:11:27.036Z,62.28
2018-02-20T17:13:57.243Z,62.35
2018-02-20T17:16:26.874Z,62.59
2018-02-20T17:18:56.383Z,62.80
2018-02-20T17:21:25.813Z,62.62
2018-02-20T17:23:55.591Z,62.62
2018-02-20T17:26:25.466Z,62.97
2018-02-20T17:28:54.979Z,62.97
2018-02-20T17:31:24.417Z,63.31
2018-02-20T17:33:55.045Z,63.45
2018-02-20T17:36:24.523Z,62.41
2018-02-20T17:38:54.293Z,61.94
2018-02-20T17:41:24.482Z,61.82
2018-02-20T17:43:54.054Z,61.11
2018-02-20T17:46:24.027Z,59.12
2018-02-20T17:48:53.778Z,59.23
2018-02-20T17:51:23.615Z,59.51
2018-02-20T17:53:53.595Z,59.76
2018-02-20T17:56:23.010Z,59.61
2018-02-20T17:58:52.482Z,59.64
2018-02-20T18:01:22.063Z,58.91
2018-02-20T18:03:51.489Z,57.92
2018-02-20T18:06:20.936Z,58.18
2018-02-20T18:08:54.817Z,58.08
2018-02-20T18:11:29.406Z,58.47
2018-02-20T18:13:58.971Z,59.00
2018-02-20T18:16:28.579Z,59.50
2018-02-20T18:18:59.061Z,58.39
2018-02-20T18:21:29.136Z,57.99
2018-02-20T18:24:01.150Z,58.19
2018-02-20T18:26:31.188Z,57.79
2018-02-20T18:29:00.724Z,56.74
2018-02-20T18:31:31.704Z,56.65
2018-02-20T18:34:01.168Z,56.82
2018-02-20T18:36:30.653Z,56.59
2018-02-20T18:39:01.347Z,56.00
2018-02-20T18:41:30.807Z,55.91
2018-02-20T18:44:00.302Z,55.82
2018-02-20T18:46:29.984Z,55.67
2018-02-20T18:48:59.518Z,55.70
2018-02-20T18:51:29.133Z,55.68
2018-02-20T18:53:58.692Z,56.30
2018-02-20T18:56:28.246Z,56.23
2018-02-20T18:58:58.093Z,56.17
2018-02-20T19:01:27.911Z,56.90
2018-02-20T19:03:58.407Z,57.30
2018-02-20T19:06:27.971Z,56.82
2018-02-20T19:08:58.556Z,56.93
2018-02-20T19:11:29.142Z,57.15
2018-02-20T19:13:58.984Z,57.71
2018-02-20T19:16:28.573Z,58.48
2018-02-20T19:18:58.483Z,58.07
2018-02-20T19:21:29.420Z,58.49
2018-02-20T19:23:59.225Z,58.78
2018-02-20T19:26:28.854Z,58.57
2018-02-20T19:28:58.616Z,58.43
2018-02-20T19:31:28.084Z,58.46
2018-02-20T19:33:57.778Z,58.97
2018-02-20T19:36:28.207Z,58.83
2018-02-20T19:38:57.964Z,59.16
2018-02-20T19:41:27.570Z,59.13
2018-02-20T19:44:00.964Z,58.55
2018-02-20T19:46:30.874Z,59.56
2018-02-20T19:49:01.139Z,58.80
2018-02-20T19:51:30.589Z,58.80
2018-02-20T19:54:00.895Z,58.71
2018-02-20T19:56:30.607Z,58.53
2018-02-20T19:59:00.168Z,58.55
2018-02-20T20:01:30.371Z,59.57
2018-02-20T20:04:00.811Z,59.74
2018-02-20T20:06:31.599Z,59.35
2018-02-20T20:09:01.496Z,59.39
2018-02-20T20:11:31.320Z,59.79
2018-02-20T20:14:01.000Z,59.72
2018-02-20T20:16:30.801Z,59.81
2018-02-20T20:19:01.109Z,59.23
2018-02-20T20:21:31.048Z,59.20
2018-02-20T20:24:00.698Z,58.89
2018-02-20T20:26:30.786Z,58.75
2018-02-20T20:29:00.463Z,59.70
2018-02-20T20:31:29.901Z,59.44
2018-02-20T20:34:00.872Z,59.74
2018-02-20T20:36:30.398Z,59.65
2018-02-20T20:39:00.356Z,59.83
2018-02-20T20:41:29.945Z,59.96
2018-02-20T20:44:01.902Z,60.09
2018-02-20T20:46:31.612Z,60.39
2018-02-20T20:49:02.710Z,61.17
2018-02-20T20:51:32.249Z,61.62
2018-02-20T20:54:02.582Z,61.67
2018-02-20T20:56:32.536Z,61.65
2018-02-20T20:59:02.732Z,61.17
2018-02-20T21:01:32.941Z,61.62
2018-02-20T21:04:04.313Z,61.70
2018-02-20T21:06:33.975Z,61.50
2018-02-20T21:09:04.308Z,61.35
2018-02-20T21:11:34.357Z,61.59
2018-02-20T21:14:05.637Z,60.87
2018-02-20T21:16:35.623Z,60.01
2018-02-20T21:19:05.568Z,59.66
2018-02-20T21:21:36.516Z,60.61
2018-02-20T21:24:06.543Z,60.65
2018-02-20T21:26:36.222Z,60.24
2018-02-20T21:29:06.619Z,60.37
2018-02-20T21:31:37.504Z,60.71
2018-02-20T21:34:07.543Z,60.88
2018-02-20T21:36:37.892Z,61.53
2018-02-20T21:39:07.757Z,61.58
2018-02-20T21:41:37.833Z,60.87
2018-02-20T21:44:07.698Z,60.89
2018-02-20T21:46:37.651Z,61.45
2018-02-20T21:49:07.813Z,61.19
2018-02-20T21:51:38.166Z,61.14
2018-02-20T21:54:08.872Z,60.42
2018-02-20T21:56:39.317Z,60.12
2018-02-20T21:59:09.654Z,59.73
2018-02-20T22:01:40.071Z,59.37
2018-02-20T22:04:09.651Z,59.71
2018-02-20T22:06:39.476Z,59.78
2018-02-20T22:09:09.245Z,59.66
2018-02-20T22:11:39.726Z,60.10
2018-02-20T22:14:09.317Z,59.95
2018-02-20T22:16:38.793Z,60.09
2018-02-20T22:19:10.187Z,60.27
2018-02-20T22:21:40.014Z,60.74
2018-02-20T22:24:10.273Z,60.60
2018-02-20T22:26:40.494Z,61.38
2018-02-20T22:29:10.808Z,61.49
2018-02-20T22:31:40.959Z,61.54
2018-02-20T22:34:12.582Z,61.77
2018-02-20T22:36:42.619Z,61.77
2018-02-20T22:39:12.549Z,62.65
2018-02-20T22:41:42.980Z,62.63
2018-02-20T22:44:12.903Z,63.00
2018-02-20T22:46:42.519Z,63.92
2018-02-20T22:49:12.416Z,64.43
2018-02-20T22:51:42.096Z,65.20
2018-02-20T22:54:12.147Z,65.23
2018-02-20T22:56:42.746Z,65.79
2018-02-20T22:59:12.525Z,66.17
2018-02-20T23:01:42.588Z,66.84
2018-02-20T23:04:12.429Z,67.24
2018-02-20T23:06:42.063Z,67.56
2018-02-20T23:09:12.143Z,67.82
2018-02-20T23:11:48.685Z,68.46
2018-02-20T23:14:18.252Z,68.95
2018-02-20T23:16:48.867Z,69.35
2018-02-20T23:19:27.582Z,69.70
2018-02-20T23:21:59.605Z,70.09
2018-02-20T23:24:29.064Z,70.24
2018-02-20T23:26:59.540Z,70.47
2018-02-20T23:29:31.058Z,70.67
2018-02-20T23:32:01.207Z,70.75
2018-02-20T23:34:32.980Z,71.13
2018-02-20T23:37:05.214Z,71.50
2018-02-20T23:39:43.065Z,71.70
2018-02-20T23:42:13.940Z,71.89
2018-02-20T23:44:44.158Z,72.03
2018-02-20T23:47:14.383Z,72.03
2018-02-20T23:49:44.284Z,72.06
2018-02-20T23:52:16.221Z,71.82
2018-02-20T23:54:49.400Z,71.79
2018-02-20T23:59:48.510Z,71.52
